createdAt,value
2019-02-27T00:00:13.381Z,91.30
2019-02-27T00:02:44.620Z,84.37
2019-02-27T00:05:15.275Z,87.03
2019-02-27T00:07:44.976Z,90.87
2019-02-27T00:10:14.795Z,77.77
2019-02-27T00:12:44.707Z,87.57
2019-02-27T00:15:14.867Z,84.37
2019-02-27T00:17:44.871Z,78.43
2019-02-27T00:20:15.281Z,76.07
2019-02-27T00:22:44.960Z,75.73
2019-02-27T00:25:14.834Z,73.93
2019-02-27T00:27:48.705Z,83.20
2019-02-27T00:30:16.138Z,72.03
2019-02-27T00:32:45.866Z,79.33
2019-02-27T00:35:15.560Z,82.77
2019-02-27T00:37:45.473Z,81.07
2019-02-27T00:40:15.504Z,77.80
2019-02-27T00:42:45.122Z,73.70
2019-02-27T00:45:14.836Z,76.30
2019-02-27T00:47:44.448Z,84.43
2019-02-27T00:50:14.652Z,81.63
2019-02-27T00:52:44.532Z,80.53
2019-02-27T00:55:14.484Z,80.70
2019-02-27T00:57:44.138Z,73.97
2019-02-27T01:00:16.081Z,87.20
2019-02-27T01:02:46.281Z,78.47
2019-02-27T01:05:16.221Z,85.30
2019-02-27T01:07:46.029Z,80.77
2019-02-27T01:10:15.747Z,77.93
2019-02-27T01:12:45.454Z,84.43
2019-02-27T01:15:15.163Z,83.97
2019-02-27T01:17:45.066Z,84.80
2019-02-27T01:20:14.997Z,91.57
2019-02-27T01:22:44.688Z,81.43
2019-02-27T01:25:14.462Z,77.97
2019-02-27T01:27:44.149Z,80.77
2019-02-27T01:30:14.490Z,73.83
2019-02-27T01:32:44.148Z,84.70
2019-02-27T01:35:17.864Z,85.33
2019-02-27T01:37:45.616Z,78.77
2019-02-27T01:40:17.955Z,83.80
2019-02-27T01:42:46.886Z,84.17
2019-02-27T01:45:20.542Z,85.03
2019-02-27T01:47:48.788Z,70.73
2019-02-27T01:50:29.631Z,80.70
2019-02-27T01:52:59.384Z,76.33
2019-02-27T01:55:29.401Z,82.67
2019-02-27T01:57:59.119Z,72.40
2019-02-27T02:00:29.112Z,70.73
2019-02-27T02:02:59.047Z,81.10
2019-02-27T02:05:28.833Z,73.30
2019-02-27T02:07:58.464Z,74.83
2019-02-27T04:29:22.546Z,54.40
2019-02-27T04:31:52.167Z,52.20
2019-02-27T04:34:21.786Z,53.40
2019-02-27T04:36:51.498Z,54.87
2019-02-27T04:39:21.113Z,51.07
2019-02-27T04:41:51.982Z,51.93
2019-02-27T04:44:22.214Z,55.57
2019-02-27T04:46:54.843Z,52.57
2019-02-27T04:49:23.146Z,52.10
2019-02-27T04:51:52.759Z,49.90
2019-02-27T04:54:22.378Z,51.70
2019-02-27T04:56:52.010Z,49.97
2019-02-27T04:59:21.638Z,53.33
2019-02-27T05:01:51.562Z,55.20
2019-02-27T05:04:22.167Z,51.80
2019-02-27T05:06:52.003Z,55.10
2019-02-27T05:09:22.206Z,55.73
2019-02-27T05:11:51.822Z,50.43
2019-02-27T05:14:21.441Z,56.83
2019-02-27T05:16:51.061Z,55.97
2019-02-27T05:19:20.669Z,50.17
2019-02-27T05:21:52.440Z,53.00
2019-02-27T05:24:21.599Z,53.60
2019-02-27T05:26:51.294Z,53.23
2019-02-27T05:29:20.985Z,53.57
2019-02-27T05:31:53.312Z,51.97
2019-02-27T05:34:22.359Z,56.80
2019-02-27T05:36:51.962Z,50.40
2019-02-27T05:39:21.577Z,55.60
2019-02-27T05:41:51.207Z,52.33
2019-02-27T05:44:22.249Z,57.87
2019-02-27T05:46:52.022Z,57.97
2019-02-27T05:49:21.942Z,54.20
2019-02-27T05:51:51.937Z,61.17
2019-02-27T05:54:21.938Z,60.93
2019-02-27T05:56:51.918Z,58.07
2019-02-27T05:59:22.606Z,60.73
2019-02-27T06:01:52.578Z,61.73
2019-02-27T06:04:24.986Z,54.40
2019-02-27T06:06:53.875Z,63.13
2019-02-27T06:09:23.478Z,57.83
2019-02-27T06:11:53.094Z,60.17
2019-02-27T06:14:22.726Z,58.00
2019-02-27T06:16:52.398Z,57.43
2019-02-27T06:19:22.114Z,58.23
2019-02-27T06:21:56.056Z,56.67
2019-02-27T06:24:23.697Z,50.17
2019-02-27T06:26:53.771Z,60.97
2019-02-27T06:29:24.123Z,60.87
2019-02-27T06:31:53.862Z,63.60
2019-02-27T06:34:24.861Z,55.37
2019-02-27T06:36:55.054Z,66.43
2019-02-27T06:39:24.935Z,48.17
2019-02-27T06:41:54.557Z,65.87
2019-02-27T06:44:24.176Z,57.50
2019-02-27T06:46:54.679Z,55.77
2019-02-27T06:49:24.527Z,60.57
2019-02-27T06:51:55.394Z,60.03
2019-02-27T06:54:25.318Z,60.93
2019-02-27T06:56:55.281Z,62.97
2019-02-27T06:59:25.673Z,56.20
2019-02-27T07:01:55.582Z,60.40
2019-02-27T07:04:26.889Z,58.47
2019-02-27T07:06:56.682Z,71.47
2019-02-27T07:09:26.343Z,61.60
2019-02-27T07:11:56.003Z,77.30
2019-02-27T07:14:25.917Z,66.47
2019-02-27T07:16:57.416Z,69.10
2019-02-27T07:19:26.844Z,66.83
2019-02-27T07:21:56.749Z,61.40
2019-02-27T07:24:26.411Z,67.77
2019-02-27T07:26:56.246Z,67.20
2019-02-27T07:29:27.466Z,69.20
2019-02-27T07:31:58.246Z,74.97
2019-02-27T07:34:28.110Z,71.97
2019-02-27T07:36:57.734Z,75.63
2019-02-27T07:39:27.347Z,77.03
2019-02-27T07:41:57.237Z,71.37
2019-02-27T07:44:26.845Z,72.83
2019-02-27T07:46:57.582Z,73.93
2019-02-27T07:49:28.342Z,73.47
2019-02-27T07:51:59.090Z,74.20
2019-02-27T07:54:29.610Z,72.37
2019-02-27T07:56:59.452Z,72.23
2019-02-27T07:59:29.350Z,69.67
2019-02-27T08:02:02.350Z,73.90
2019-02-27T08:04:30.386Z,68.83
2019-02-27T08:07:00.040Z,67.73
2019-02-27T08:09:30.195Z,64.90
2019-02-27T08:12:00.671Z,70.40
2019-02-27T08:14:30.309Z,66.80
2019-02-27T08:16:59.973Z,61.30
2019-02-27T08:19:29.611Z,61.93
2019-02-27T08:21:59.279Z,60.70
2019-02-27T08:24:29.238Z,64.13
2019-02-27T08:26:59.181Z,61.03
2019-02-27T08:29:29.619Z,56.10
2019-02-27T08:32:01.282Z,59.07
2019-02-27T08:34:30.847Z,55.90
2019-02-27T08:37:00.555Z,55.80
2019-02-27T08:39:30.203Z,56.43
2019-02-27T08:42:03.146Z,50.53
2019-02-27T08:44:31.208Z,52.87
2019-02-27T08:47:00.867Z,51.77
2019-02-27T08:49:31.884Z,49.27
2019-02-27T08:52:02.027Z,50.97
2019-02-27T08:54:33.001Z,47.47
2019-02-27T08:57:02.936Z,48.23
2019-02-27T08:59:33.244Z,47.90
2019-02-27T09:02:04.001Z,50.13
2019-02-27T09:04:33.884Z,48.13
2019-02-27T09:07:03.617Z,47.43
2019-02-27T09:09:33.641Z,46.30
2019-02-27T09:12:03.282Z,47.03
2019-02-27T09:14:32.933Z,46.77
2019-02-27T09:17:02.578Z,46.57
2019-02-27T09:19:32.227Z,44.53
2019-02-27T09:22:02.428Z,44.83
2019-02-27T09:24:32.480Z,45.20
2019-02-27T09:27:02.120Z,44.87
2019-02-27T09:29:31.776Z,43.07
2019-02-27T09:32:02.040Z,45.70
2019-02-27T09:34:31.725Z,42.03
2019-02-27T09:37:01.414Z,43.47
2019-02-27T09:39:31.975Z,44.20
2019-02-27T09:42:01.692Z,40.23
2019-02-27T09:44:31.403Z,39.60
2019-02-27T09:47:01.075Z,45.07
2019-02-27T09:49:30.721Z,38.57
2019-02-27T09:52:00.372Z,40.90
2019-02-27T09:54:30.398Z,40.03
2019-02-27T09:57:02.243Z,39.30
2019-02-27T09:59:31.432Z,41.27
2019-02-27T10:02:01.159Z,42.63
2019-02-27T10:04:31.125Z,45.17
2019-02-27T10:07:00.827Z,38.10
2019-02-27T10:09:34.468Z,44.27
2019-02-27T10:12:02.227Z,42.53
2019-02-27T10:14:31.871Z,40.50
2019-02-27T10:17:01.519Z,38.93
2019-02-27T10:19:31.163Z,38.83
2019-02-27T10:22:00.807Z,39.30
2019-02-27T10:24:32.224Z,40.87
2019-02-27T10:27:01.981Z,43.17
2019-02-27T10:29:31.627Z,40.67
2019-02-27T10:32:01.385Z,44.03
2019-02-27T10:34:32.267Z,37.80
2019-02-27T10:37:01.955Z,39.17
2019-02-27T10:39:31.967Z,42.30
2019-02-27T10:42:01.696Z,40.17
2019-02-27T10:44:33.601Z,43.17
2019-02-27T10:47:02.683Z,39.53
2019-02-27T10:49:33.412Z,38.83
2019-02-27T10:52:03.068Z,38.77
2019-02-27T10:54:32.990Z,41.33
2019-02-27T10:57:02.973Z,38.77
2019-02-27T10:59:32.619Z,38.60
2019-02-27T11:02:02.339Z,37.60
2019-02-27T11:04:31.984Z,41.87
2019-02-27T11:07:01.655Z,36.07
2019-02-27T11:09:31.358Z,37.57
2019-02-27T11:12:01.232Z,40.73
2019-02-27T11:14:32.023Z,36.33
2019-02-27T11:17:03.400Z,35.63
2019-02-27T11:19:35.036Z,38.67
2019-02-27T11:22:04.843Z,33.87
2019-02-27T11:24:35.064Z,36.97
2019-02-27T11:27:06.242Z,41.97
2019-02-27T11:29:36.475Z,33.83
2019-02-27T11:32:06.672Z,34.17
2019-02-27T11:34:36.435Z,37.90
2019-02-27T11:37:06.227Z,33.33
2019-02-27T11:39:35.883Z,34.10
2019-02-27T11:42:05.615Z,34.40
2019-02-27T11:44:35.406Z,33.57
2019-02-27T11:47:05.114Z,32.87
2019-02-27T11:49:36.260Z,34.93
2019-02-27T11:52:06.648Z,30.80
2019-02-27T11:54:36.540Z,26.47
2019-02-27T11:57:06.297Z,29.67
2019-02-27T11:59:35.947Z,28.43
2019-02-27T12:02:05.676Z,30.07
2019-02-27T12:04:35.451Z,31.67
2019-02-27T12:07:05.293Z,26.03
2019-02-27T12:09:35.777Z,25.17
2019-02-27T12:12:05.629Z,22.00
2019-02-27T12:14:35.735Z,21.60
2019-02-27T12:17:05.447Z,22.77
2019-02-27T12:19:35.362Z,22.50
2019-02-27T12:22:05.995Z,24.40
2019-02-27T12:24:35.708Z,23.77
2019-02-27T12:27:07.204Z,21.70
2019-02-27T12:29:37.175Z,23.57
2019-02-27T12:32:06.879Z,23.13
2019-02-27T12:34:37.056Z,22.93
2019-02-27T12:37:19.141Z,24.47
2019-02-27T12:39:38.988Z,22.87
2019-02-27T12:42:08.947Z,21.33
2019-02-27T12:44:38.585Z,22.43
2019-02-27T12:47:08.239Z,22.87
2019-02-27T12:49:37.891Z,24.27
2019-02-27T12:52:09.029Z,18.77
2019-02-27T12:54:39.308Z,17.17
2019-02-27T12:57:09.426Z,18.03
2019-02-27T12:59:39.084Z,20.73
2019-02-27T13:02:10.812Z,20.23
2019-02-27T13:04:40.398Z,21.40
2019-02-27T13:07:10.788Z,19.53
2019-02-27T13:09:40.988Z,21.03
2019-02-27T13:12:10.622Z,22.10
2019-02-27T13:14:40.951Z,22.73
2019-02-27T13:17:10.590Z,19.93
2019-02-27T13:19:40.239Z,28.07
2019-02-27T13:22:09.896Z,21.07
2019-02-27T13:24:39.627Z,22.30
2019-02-27T13:27:09.912Z,22.63
2019-02-27T13:29:39.691Z,21.93
2019-02-27T13:32:09.332Z,23.17
2019-02-27T13:34:39.038Z,24.03
2019-02-27T13:37:10.228Z,20.47
2019-02-27T13:39:40.234Z,21.27
2019-02-27T13:42:10.194Z,23.17
2019-02-27T13:44:39.892Z,22.40
2019-02-27T13:47:09.913Z,20.43
2019-02-27T13:49:39.855Z,21.27
2019-02-27T13:52:12.248Z,21.93
2019-02-27T13:54:41.268Z,18.30
2019-02-27T13:57:11.280Z,18.57
2019-02-27T13:59:42.284Z,20.57
2019-02-27T14:02:12.339Z,20.80
2019-02-27T14:04:42.404Z,18.57
2019-02-27T14:07:12.067Z,18.33
2019-02-27T14:09:42.265Z,21.87
2019-02-27T14:12:12.063Z,17.90
2019-02-27T14:14:41.723Z,19.83
2019-02-27T14:17:11.538Z,19.23
2019-02-27T14:19:41.251Z,19.30
2019-02-27T14:22:11.543Z,18.83
2019-02-27T14:24:41.195Z,22.47
2019-02-27T14:27:11.997Z,18.90
2019-02-27T14:29:43.768Z,17.77
2019-02-27T14:32:14.497Z,24.03
2019-02-27T14:34:45.167Z,23.73
2019-02-27T14:37:16.523Z,30.13
2019-02-27T14:39:46.335Z,21.40
2019-02-27T14:42:15.984Z,22.93
2019-02-27T14:44:45.770Z,21.67
2019-02-27T14:47:16.383Z,21.13
2019-02-27T14:49:46.743Z,22.63
2019-02-27T14:52:16.390Z,19.53
2019-02-27T14:54:46.192Z,20.17
2019-02-27T14:57:16.734Z,21.63
2019-02-27T14:59:46.566Z,20.17
2019-02-27T15:02:22.161Z,21.47
2019-02-27T15:04:49.056Z,22.53
2019-02-27T15:07:22.141Z,23.33
2019-02-27T15:09:51.851Z,22.20
2019-02-27T15:12:21.732Z,18.17
2019-02-27T15:14:51.700Z,20.73
2019-02-27T15:17:22.454Z,18.07
2019-02-27T15:19:52.155Z,18.30
2019-02-27T15:22:21.824Z,17.03
2019-02-27T15:24:51.482Z,17.17
2019-02-27T15:27:22.450Z,18.60
2019-02-27T15:29:52.846Z,15.40
2019-02-27T15:32:22.540Z,17.00
2019-02-27T15:34:52.194Z,19.23
2019-02-27T15:37:21.917Z,18.40
2019-02-27T15:39:51.943Z,22.90
2019-02-27T15:42:23.091Z,20.67
2019-02-27T15:44:52.730Z,18.37
2019-02-27T15:47:22.565Z,18.37
2019-02-27T15:49:52.198Z,20.07
2019-02-27T15:52:22.823Z,19.83
2019-02-27T15:54:55.475Z,20.77
2019-02-27T15:57:23.815Z,21.67
2019-02-27T15:59:53.451Z,21.37
2019-02-27T16:02:23.183Z,24.43
2019-02-27T16:04:55.443Z,22.90
2019-02-27T16:07:26.587Z,23.37
2019-02-27T16:09:56.548Z,22.03
2019-02-27T16:12:26.511Z,21.87
2019-02-27T16:14:56.219Z,20.07
2019-02-27T16:17:25.872Z,23.23
2019-02-27T16:19:56.195Z,24.90
2019-02-27T16:22:28.790Z,23.90
2019-02-27T16:24:57.343Z,22.23
2019-02-27T16:27:27.587Z,23.73
2019-02-27T16:29:58.792Z,26.83
2019-02-27T16:32:28.670Z,26.00
2019-02-27T16:34:58.327Z,29.97
2019-02-27T16:37:27.971Z,31.23
2019-02-27T16:39:57.622Z,30.37
2019-02-27T16:42:27.283Z,29.23
2019-02-27T16:44:57.974Z,28.00
2019-02-27T16:47:28.013Z,25.07
2019-02-27T16:49:58.055Z,27.30
2019-02-27T16:52:28.084Z,24.73
2019-02-27T16:55:00.928Z,25.13
2019-02-27T16:57:29.349Z,25.90
2019-02-27T16:59:58.993Z,25.97
2019-02-27T17:02:28.658Z,24.80
2019-02-27T17:04:58.670Z,24.10
2019-02-27T17:07:28.808Z,24.90
2019-02-27T17:09:58.614Z,27.80
2019-02-27T17:12:28.783Z,27.77
2019-02-27T17:14:59.743Z,25.87
2019-02-27T17:17:29.398Z,24.10
2019-02-27T17:19:59.378Z,24.50
2019-02-27T17:22:30.295Z,25.03
2019-02-27T17:25:00.647Z,22.87
2019-02-27T17:27:30.306Z,29.73
2019-02-27T17:30:00.947Z,26.33
2019-02-27T17:32:32.426Z,28.33
2019-02-27T17:35:02.071Z,28.13
2019-02-27T17:37:32.803Z,31.00
2019-02-27T17:40:03.570Z,27.63
2019-02-27T17:42:33.562Z,27.50
2019-02-27T17:45:03.335Z,29.27
2019-02-27T17:47:34.808Z,27.03
2019-02-27T17:50:05.798Z,30.37
2019-02-27T17:52:36.347Z,28.30
2019-02-27T17:55:06.804Z,28.87
2019-02-27T17:57:37.672Z,28.27
2019-02-27T18:00:16.062Z,29.87
2019-02-27T18:02:44.751Z,31.03
2019-02-27T18:05:14.751Z,30.53
2019-02-27T18:07:44.598Z,32.50
2019-02-27T18:10:15.035Z,29.70
2019-02-27T18:12:44.679Z,28.60
2019-02-27T18:15:19.841Z,27.90
2019-02-27T18:17:46.476Z,27.13
2019-02-27T18:20:16.602Z,26.40
2019-02-27T18:22:49.569Z,25.93
2019-02-27T18:25:18.144Z,26.67
2019-02-27T18:27:48.382Z,26.77
2019-02-27T18:30:18.953Z,25.87
2019-02-27T18:32:49.626Z,27.00
2019-02-27T18:35:19.613Z,31.00
2019-02-27T18:37:53.224Z,27.20
2019-02-27T18:40:21.313Z,25.57
2019-02-27T18:42:55.281Z,24.97
2019-02-27T18:45:22.883Z,28.10
2019-02-27T18:47:52.594Z,26.43
2019-02-27T18:50:24.795Z,26.20
2019-02-27T18:52:53.700Z,26.37
2019-02-27T18:55:23.428Z,26.37
2019-02-27T18:57:53.377Z,28.20
2019-02-27T19:00:23.280Z,25.53
2019-02-27T19:02:53.827Z,27.20
2019-02-27T19:05:24.030Z,24.20
2019-02-27T19:07:55.284Z,25.97
2019-02-27T19:10:25.666Z,27.20
2019-02-27T19:12:55.438Z,27.77
2019-02-27T19:15:25.366Z,26.30
2019-02-27T19:17:55.475Z,26.07
2019-02-27T19:20:27.034Z,32.30
2019-02-27T19:22:57.300Z,38.60
2019-02-27T19:25:27.130Z,30.47
2019-02-27T19:27:57.031Z,26.13
2019-02-27T19:30:27.558Z,26.57
2019-02-27T19:33:01.596Z,26.13
2019-02-27T19:35:28.942Z,25.20
2019-02-27T19:37:58.795Z,30.53
2019-02-27T19:40:30.574Z,25.57
2019-02-27T19:43:01.463Z,31.00
2019-02-27T19:45:31.343Z,27.77
2019-02-27T19:48:01.167Z,29.17
2019-02-27T19:50:32.423Z,30.23
2019-02-27T19:53:05.192Z,25.90
2019-02-27T19:55:33.535Z,25.63
2019-02-27T19:58:03.248Z,26.70
2019-02-27T20:00:34.894Z,27.57
2019-02-27T20:03:04.700Z,28.83
2019-02-27T20:05:36.350Z,31.00
2019-02-27T20:08:09.815Z,30.80
2019-02-27T20:10:38.207Z,27.60
2019-02-27T20:13:07.951Z,28.43
2019-02-27T20:15:37.760Z,24.83
2019-02-27T20:18:08.268Z,27.67
2019-02-27T20:20:41.036Z,25.43
2019-02-27T20:23:11.818Z,26.50
2019-02-27T20:25:44.372Z,28.23
2019-02-27T20:28:14.426Z,27.60
2019-02-27T20:30:44.839Z,27.20
2019-02-27T20:33:14.479Z,28.47
2019-02-27T20:35:44.197Z,26.83
2019-02-27T20:38:16.103Z,28.60
2019-02-27T20:40:45.550Z,31.60
2019-02-27T20:43:15.268Z,29.47
2019-02-27T20:45:45.304Z,28.87
2019-02-27T20:48:15.059Z,31.63
2019-02-27T20:50:45.512Z,31.07
2019-02-27T20:53:15.165Z,30.30
2019-02-27T20:55:44.794Z,33.53
2019-02-27T20:58:16.826Z,29.73
2019-02-27T21:00:46.024Z,29.57
2019-02-27T21:03:15.658Z,30.80
2019-02-27T21:05:45.376Z,31.03
2019-02-27T21:08:15.079Z,31.30
2019-02-27T21:10:44.798Z,31.63
2019-02-27T21:13:15.990Z,31.97
2019-02-27T21:15:45.823Z,32.17
2019-02-27T21:18:15.797Z,30.80
2019-02-27T21:20:46.281Z,31.90
2019-02-27T21:23:16.138Z,30.27
2019-02-27T21:25:48.717Z,29.43
2019-02-27T21:28:21.242Z,19.87
2019-02-27T21:30:52.325Z,32.97
2019-02-27T21:33:22.016Z,31.77
2019-02-27T21:35:51.715Z,32.13
2019-02-27T21:38:22.741Z,31.33
2019-02-27T21:40:52.405Z,35.90
2019-02-27T21:43:25.606Z,36.30
2019-02-27T21:45:54.382Z,33.80
2019-02-27T21:48:26.790Z,37.23
2019-02-27T21:50:55.947Z,33.60
2019-02-27T21:53:26.155Z,31.07
2019-02-27T21:55:57.503Z,31.43
2019-02-27T21:58:31.893Z,34.03
2019-02-27T22:00:58.575Z,34.90
2019-02-27T22:03:28.343Z,31.53
2019-02-27T22:05:58.133Z,34.77
2019-02-27T22:08:27.802Z,30.27
2019-02-27T22:10:57.448Z,30.07
2019-02-27T22:13:30.316Z,31.53
2019-02-27T22:15:58.476Z,30.40
2019-02-27T22:18:28.184Z,30.20
2019-02-27T22:20:59.669Z,31.33
2019-02-27T22:23:29.187Z,31.67
2019-02-27T22:26:02.952Z,34.13
2019-02-27T22:28:30.774Z,32.37
2019-02-27T22:31:03.335Z,33.23
2019-02-27T22:33:31.788Z,35.90
2019-02-27T22:36:01.423Z,38.30
2019-02-27T22:38:31.375Z,37.83
2019-02-27T22:41:01.032Z,37.70
2019-02-27T22:43:30.676Z,38.40
2019-02-27T22:46:00.595Z,42.07
2019-02-27T22:48:30.327Z,37.83
2019-02-27T22:51:00.272Z,42.23
2019-02-27T22:53:29.925Z,38.70
2019-02-27T22:55:59.907Z,38.77
2019-02-27T22:58:29.806Z,38.80
2019-02-27T23:01:34.005Z,39.47
2019-02-27T23:04:05.931Z,40.63
2019-02-27T23:06:35.742Z,39.77
2019-02-27T23:09:09.235Z,35.47
2019-02-27T23:11:39.739Z,40.80
2019-02-27T23:14:09.776Z,38.30
2019-02-27T23:16:39.491Z,38.07
2019-02-27T23:19:12.053Z,35.63
2019-02-27T23:21:40.944Z,40.90
2019-02-27T23:24:10.978Z,38.07
2019-02-27T23:26:41.918Z,39.63
2019-02-27T23:29:12.031Z,36.87
2019-02-27T23:31:42.495Z,39.43
2019-02-27T23:34:12.143Z,39.80
2019-02-27T23:36:43.259Z,36.70
2019-02-27T23:39:12.890Z,40.93
2019-02-27T23:41:42.767Z,41.13
2019-02-27T23:44:12.403Z,40.23
2019-02-27T23:46:48.742Z,42.03
2019-02-27T23:49:14.388Z,42.23
2019-02-27T23:51:44.359Z,46.57
2019-02-27T23:54:14.071Z,41.90
2019-02-27T23:56:44.369Z,47.80
2019-02-27T23:59:14.151Z,48.33
